METAR Data
IDs: Format: Raw Decoded Include TAF

Data at: 2014 UTC 23 Oct 2021

KCWF 231945Z 15011G15KT 10SM BKN045 29/21 A2994
KCWF 231845Z 18009KT 10SM BKN030 29/22 A2996
KCWF 231747Z 13010KT 10SM BKN028 29/22 A2999
KCWF 231645Z 16009KT 10SM BKN020 BKN025 28/22 A3001
KCWF 231545Z 11007KT 10SM BKN008 BKN022 25/23 A3002
KCWF 231445Z 10404KT 4SM BR OVC003 23/23 A3002
KCWF 231346Z 12005KT 1/4SM FG VV001 22/22 A3000
KCWF 231249Z 00000KT 1/4SM FG VV001 22/21 A2998
KCWF 231146Z 11006KT 1/4SM FG VV001 22/21 A2997
KCWF 231100Z 00000KT 1/4SM FG VV001 21/21 A2996
KCWF 231035Z AUTO 09004KT 1/4SM FG OVC001 21/20 A2996 RMK AO2 T02110205
KCWF 231015Z AUTO 06003KT M1/4SM FG OVC001 21/20 A2995 RMK AO2 T02080202
KCWF 230955Z AUTO 11003KT 1/4SM FG OVC001 21/20 A2995 RMK AO2 T02060200
KCWF 230935Z AUTO 00000KT 1/4SM FG OVC001 20/20 A2996 RMK AO2 T02030197
KCWF 230915Z AUTO 00000KT 1/4SM FG OVC001 20/20 A2996 RMK AO2 T02050199
KCWF 230855Z AUTO 12004KT 1/4SM FG OVC001 20/20 A2997 RMK AO2 T02040197
KCWF 230835Z AUTO 00000KT 1/4SM FG OVC001 20/20 A2997 RMK AO2 T02050198
KCWF 230815Z AUTO 00000KT M1/4SM FG OVC001 20/19 A2997 RMK AO2 T02000194
KCWF 230755Z AUTO 00000KT 1/4SM FG OVC001 20/19 A2997 RMK AO2 T01990192
KCWF 230735Z AUTO 13003KT 1/4SM FG OVC001 19/19 A2997 RMK AO2 T01940187
KCWF 230715Z AUTO 00000KT 3/4SM BR OVC001 21/20 A2998 RMK AO2 T02060199
KCWF 230655Z AUTO 00000KT 1/4SM FG OVC003 20/20 A2998 RMK AO2 T02030196
KCWF 230635Z AUTO 09003KT 1/2SM FG OVC003 21/20 A2998 RMK AO2 T02050198
KCWF 230615Z AUTO 10004KT 1/2SM FG VV005 21/20 A2998 RMK AO2 T02080201
KCWF 230555Z AUTO 00000KT 1 1/4SM BR VV007 21/20 A2999 RMK AO2 VIS 1/2V5 T02060197 10271 20202
KCWF 230535Z AUTO 00000KT 3 1/2SM BR CLR 21/21 A2999 RMK AO2 T02130205
KCWF 230515Z AUTO 00000KT 5SM BR SCT039 SCT050 21/20 A3000 RMK AO2 T02120203
KCWF 230455Z AUTO 00000KT 3 1/2SM BR SCT037 SCT050 21/20 A3000 RMK AO2 T02120204
KCWF 230435Z AUTO 00000KT 3/4SM BR VV005 22/21 A3001 RMK AO2 VIS 1/4V3 T02170208
KCWF 230415Z AUTO 00000KT 7SM CLR 23/21 A3001 RMK AO2 T02260213
KCWF 230355Z AUTO 00000KT 10SM SCT046 SCT050 23/21 A3001 RMK AO2 T02250214
KCWF 230335Z AUTO 00000KT 7SM BKN046 BKN050 22/21 A3001 RMK AO2 T02250213
KCWF 230315Z AUTO 17003KT 10SM SCT043 22/21 A3001 RMK AO2 T02240212
KCWF 230250Z 15003KT 10SM SKC 22/21 A3001 RMK LAST
KCWF 230150Z 00000KT 10SM SCT043 24/21 A3000
KCWF 230045Z 22004KT 10SM BKN046 27/22 A2999
KCWF 222350Z 14004KT 10SM BKN048 26/21 A2998
KCWF 222245Z 00000KT 10SM SCT046 28/20 A2998
KCWF 222145Z 09004KT 10SM SCT050 29/19 A2998
KCWF 222045Z 13005KT 10SM SCT050 30/19 A2999
KCWF 221950Z 06003KT 10SM SCT050 29/20 A3001
KCWF 221845Z 00000KT 10SM SCT035 BKN050 29/21 A3004
KCWF 221750Z 12007KT 10SM SCT075 28/21 A3008
KCWF 221647Z 12005KT 10SM SCT070 27/21 A3011
KCWF 221545Z 06007KT 7SM SCT060 26/21 A3011
KCWF 221455Z 06007KT 7SM SCT070 23/20 A3011
KCWF 221350Z 00000KT 7SM SCT040 22/20 A3008
KCWF 221248Z 00000KT 7SM SKC 21/20 A3007
KCWF 221247Z COR 00000KT 7SM SKC 21/20 A3007
KCWF 221150Z 00000KT 10SM SKC 21/20 A3005
KCWF 221100Z 00000KT 10SM SKC 21/19 A3004
KCWF 221035Z AUTO 00000KT 3 1/2SM BR 21/20 A3004 RMK AO2 T02090201
KCWF 221015Z AUTO 36003KT 5SM BR CLR 21/20 A3004 RMK AO2 T02100202
KCWF 220955Z AUTO 34003KT 5SM BR CLR 21/20 A3004 RMK AO2 T02110203
KCWF 220935Z AUTO 34003KT 5SM BR SCT002 21/20 A3004 RMK AO2 T02130204
KCWF 220915Z AUTO 33004KT 4SM BR BKN002 21/21 A3005 RMK AO2 T02150207
KCWF 220855Z AUTO 33005KT 3SM BR OVC002 22/21 A3006 RMK AO2 T02180210
KCWF 220835Z AUTO 34005KT 3 1/2SM BR SCT002 22/21 A3006 RMK AO2 T02160207
KCWF 220815Z AUTO 33004KT 3 1/2SM BR CLR 22/21 A3006 RMK AO2 T02160207